Time;durP1;ratioP1;P1;durP2;ratioP2;P2;SDS_P1;SDS_P2;PMS_P1;PMS_P2;Temp;Humidity;BMP_temperature;BMP_pressure;BME280_temperature;BME280_humidity;BME280_pressure;Samples;Min_cycle;Max_cycle;Signal;HPM_P1;HPM_P2
2021/01/20 00:02:13;;;;;;;11.93;10.07;;;4.30;99.90;;;;;;5029108;28;20239;-48
2021/01/20 00:04:39;;;;;;;10.60;8.90;;;4.40;99.90;;;;;;5031946;28;20188;-46
2021/01/20 00:07:04;;;;;;;12.50;10.47;;;4.40;99.90;;;;;;5035321;28;20202;-46
2021/01/20 00:09:30;;;;;;;14.00;11.10;;;4.50;99.90;;;;;;5032920;28;20214;-51
2021/01/20 00:11:55;;;;;;;11.33;10.10;;;4.50;99.90;;;;;;5026354;28;20187;-48
2021/01/20 00:14:21;;;;;;;12.17;9.67;;;4.60;99.90;;;;;;5034825;28;20184;-45
2021/01/20 00:16:46;;;;;;;11.20;8.93;;;4.60;99.90;;;;;;5024226;28;20592;-46
2021/01/20 00:19:12;;;;;;;12.43;9.73;;;4.60;99.90;;;;;;5029684;28;20537;-46
2021/01/20 00:21:39;;;;;;;10.77;9.13;;;4.60;99.90;;;;;;5032979;28;20213;-46
2021/01/20 00:24:05;;;;;;;12.33;9.83;;;4.60;99.90;;;;;;5034419;28;20202;-45
2021/01/20 00:26:32;;;;;;;12.67;10.40;;;4.70;99.90;;;;;;5034737;28;20183;-46
2021/01/20 00:28:57;;;;;;;14.43;11.53;;;4.70;99.90;;;;;;5034725;28;20199;-47
2021/01/20 00:31:23;;;;;;;12.70;10.10;;;4.80;99.90;;;;;;5034530;28;20222;-45
2021/01/20 00:33:48;;;;;;;10.20;8.67;;;4.70;99.90;;;;;;5034667;28;20628;-48
2021/01/20 00:36:14;;;;;;;10.27;7.83;;;4.70;99.90;;;;;;5034271;28;20769;-46
2021/01/20 00:38:40;;;;;;;9.60;7.30;;;4.60;99.90;;;;;;5034434;28;20651;-49
2021/01/20 00:41:06;;;;;;;7.83;6.93;;;4.60;99.90;;;;;;5033065;28;20327;-48
2021/01/20 00:43:31;;;;;;;9.00;7.90;;;4.70;99.90;;;;;;5034446;28;20292;-45
2021/01/20 00:45:57;;;;;;;10.90;8.10;;;4.70;99.90;;;;;;5034234;28;20233;-48
2021/01/20 00:48:23;;;;;;;8.80;7.53;;;4.70;99.90;;;;;;5034196;28;20204;-48
2021/01/20 00:50:53;;;;;;;6.60;5.80;;;4.80;99.90;;;;;;5034314;28;20558;-46
2021/01/20 00:53:19;;;;;;;6.83;5.90;;;4.80;99.90;;;;;;5033622;28;20200;-45
2021/01/20 00:55:45;;;;;;;6.23;5.53;;;4.80;99.90;;;;;;5034504;28;20223;-46
2021/01/20 00:58:10;;;;;;;6.17;5.43;;;4.80;99.90;;;;;;5034109;28;20198;-47
2021/01/20 01:00:36;;;;;;;7.03;6.33;;;4.80;99.90;;;;;;5030251;28;20263;-48
2021/01/20 01:03:01;;;;;;;5.97;5.27;;;4.80;99.90;;;;;;5032683;28;20278;-46
2021/01/20 01:05:27;;;;;;;6.90;5.97;;;4.80;99.90;;;;;;5033856;28;20235;-48
2021/01/20 01:07:53;;;;;;;6.33;5.63;;;4.70;99.90;;;;;;5035644;28;20180;-47
2021/01/20 01:10:19;;;;;;;6.53;5.60;;;4.70;99.90;;;;;;5032807;28;20211;-46
2021/01/20 01:12:44;;;;;;;6.40;5.33;;;4.70;99.90;;;;;;5031938;28;20186;-50
2021/01/20 01:15:10;;;;;;;7.03;5.57;;;4.60;99.90;;;;;;5033048;28;20182;-47
2021/01/20 01:17:36;;;;;;;6.90;6.00;;;4.50;99.90;;;;;;5033784;28;20207;-49
2021/01/20 01:20:02;;;;;;;6.53;5.50;;;4.40;99.90;;;;;;5034525;28;20215;-46
2021/01/20 01:22:27;;;;;;;6.77;5.80;;;4.40;99.90;;;;;;5035447;28;20219;-48
2021/01/20 01:24:53;;;;;;;6.70;6.00;;;4.50;99.90;;;;;;5034578;28;20310;-45
2021/01/20 01:27:18;;;;;;;6.93;6.00;;;4.40;99.90;;;;;;5033037;28;20213;-46
2021/01/20 01:29:44;;;;;;;6.40;5.60;;;4.40;99.90;;;;;;5035264;28;20206;-48
2021/01/20 01:32:09;;;;;;;7.30;6.47;;;4.40;99.90;;;;;;5033675;28;20650;-50
2021/01/20 01:34:35;;;;;;;10.00;8.60;;;4.40;99.90;;;;;;5034816;28;20172;-48
2021/01/20 01:37:00;;;;;;;9.40;7.87;;;4.30;99.90;;;;;;5033725;28;20202;-48
2021/01/20 01:39:26;;;;;;;9.33;7.87;;;4.30;99.90;;;;;;5033525;28;20232;-45
2021/01/20 01:41:51;;;;;;;8.97;7.47;;;4.30;99.90;;;;;;5032979;28;20172;-46
2021/01/20 01:44:18;;;;;;;7.57;6.70;;;4.30;99.90;;;;;;5033617;28;20179;-47
2021/01/20 01:46:44;;;;;;;7.80;6.80;;;4.30;99.90;;;;;;5033250;28;20168;-46
2021/01/20 01:49:10;;;;;;;7.80;6.93;;;4.40;99.90;;;;;;5034287;28;20192;-49
2021/01/20 01:51:36;;;;;;;8.13;6.90;;;4.40;99.90;;;;;;5033693;28;20222;-46
2021/01/20 01:54:02;;;;;;;8.00;6.67;;;4.40;99.90;;;;;;5033561;28;20715;-46
2021/01/20 01:56:28;;;;;;;8.83;7.33;;;4.30;99.90;;;;;;5033379;28;20255;-48
2021/01/20 01:58:54;;;;;;;9.40;7.93;;;4.40;99.90;;;;;;5033487;28;20295;-48
2021/01/20 02:01:20;;;;;;;9.67;8.10;;;4.30;99.90;;;;;;5036406;28;20263;-47
2021/01/20 02:03:49;;;;;;;10.23;8.10;;;4.30;99.90;;;;;;5037082;28;20219;-45
2021/01/20 02:06:15;;;;;;;8.90;7.63;;;4.30;99.90;;;;;;5036790;28;20636;-48
2021/01/20 02:08:42;;;;;;;9.63;8.13;;;4.30;99.90;;;;;;5038075;28;20200;-48
2021/01/20 02:11:26;;;;;;;10.27;8.00;;;4.30;99.90;;;;;;5020395;28;20223;-47
2021/01/20 02:13:57;;;;;;;9.93;7.30;;;4.30;99.90;;;;;;5036559;28;20314;-45
2021/01/20 02:16:25;;;;;;;9.00;7.03;;;4.30;99.90;;;;;;5038844;28;20179;-47
2021/01/20 02:18:53;;;;;;;10.00;7.70;;;4.30;99.90;;;;;;5036389;28;20195;-47
2021/01/20 02:21:34;;;;;;;9.03;7.37;;;4.20;99.90;;;;;;5037338;28;20632;-46
2021/01/20 02:24:07;;;;;;;8.87;7.10;;;4.20;99.90;;;;;;5034669;28;20203;-48
2021/01/20 02:27:11;;;;;;;8.10;6.60;;;4.20;99.90;;;;;;5036990;28;20208;-46
2021/01/20 02:30:02;;;;;;;8.77;7.20;;;4.20;99.90;;;;;;5035312;28;20287;-48
2021/01/20 02:32:28;;;;;;;7.97;7.13;;;4.20;99.90;;;;;;5036749;28;20180;-46
2021/01/20 02:34:56;;;;;;;9.00;7.70;;;4.20;99.90;;;;;;5021936;28;20188;-45
2021/01/20 02:37:23;;;;;;;9.67;7.87;;;4.10;99.90;;;;;;5033345;28;20230;-45
2021/01/20 02:39:48;;;;;;;10.23;8.60;;;4.10;99.90;;;;;;5030235;28;20559;-48
2021/01/20 02:42:14;;;;;;;9.90;8.70;;;4.10;99.90;;;;;;5036766;28;20217;-46
2021/01/20 02:44:40;;;;;;;11.30;9.27;;;4.10;99.90;;;;;;5036707;28;20535;-49
2021/01/20 02:47:08;;;;;;;11.13;8.83;;;4.00;99.90;;;;;;5036849;28;20182;-47
2021/01/20 02:49:34;;;;;;;11.40;9.13;;;4.00;99.90;;;;;;5034232;28;20216;-45
2021/01/20 02:52:30;;;;;;;11.07;9.33;;;3.90;99.90;;;;;;5035655;28;20199;-46
2021/01/20 02:54:58;;;;;;;11.30;9.30;;;4.00;99.90;;;;;;5016940;28;20213;-48
2021/01/20 02:57:25;;;;;;;10.73;9.23;;;3.90;99.90;;;;;;5023467;28;20624;-49
2021/01/20 02:59:54;;;;;;;11.00;9.43;;;3.80;99.90;;;;;;5029393;28;20326;-49
2021/01/20 03:02:20;;;;;;;11.20;9.87;;;3.80;99.90;;;;;;5033032;28;20195;-47
2021/01/20 03:04:48;;;;;;;11.33;9.87;;;3.80;99.90;;;;;;5035027;28;20184;-48
2021/01/20 03:07:18;;;;;;;11.63;9.83;;;3.80;99.90;;;;;;5036960;28;20179;-46
2021/01/20 03:09:43;;;;;;;13.37;11.30;;;3.80;99.90;;;;;;5035875;28;20207;-47
2021/01/20 03:12:09;;;;;;;11.83;9.87;;;3.80;99.90;;;;;;5036029;28;20247;-46
2021/01/20 03:14:38;;;;;;;12.37;10.47;;;3.90;99.90;;;;;;5034993;28;20698;-49
2021/01/20 03:17:04;;;;;;;10.87;9.00;;;3.80;99.90;;;;;;5036251;28;20218;-46
2021/01/20 03:19:29;;;;;;;9.57;8.17;;;3.70;99.90;;;;;;5035600;28;20286;-46
2021/01/20 03:21:55;;;;;;;11.77;9.43;;;3.70;99.90;;;;;;5035868;28;20664;-48
2021/01/20 03:24:20;;;;;;;9.87;8.10;;;3.60;99.90;;;;;;5035855;28;20176;-46
2021/01/20 03:26:46;;;;;;;18.60;9.37;;;3.50;99.90;;;;;;5035033;28;20202;-47
2021/01/20 03:29:11;;;;;;;9.47;8.47;;;3.50;99.90;;;;;;5035738;28;20199;-48
2021/01/20 03:31:37;;;;;;;10.27;8.50;;;3.40;99.90;;;;;;5035201;28;20687;-46
2021/01/20 03:34:02;;;;;;;11.63;8.63;;;3.40;99.90;;;;;;5035475;28;20182;-46
2021/01/20 03:36:28;;;;;;;9.87;8.47;;;3.40;99.90;;;;;;5035352;28;20183;-46
2021/01/20 03:38:54;;;;;;;13.30;8.70;;;3.40;99.90;;;;;;5034991;28;20198;-47
2021/01/20 03:41:20;;;;;;;10.20;7.97;;;3.30;99.90;;;;;;5036103;28;20176;-48
2021/01/20 03:43:45;;;;;;;15.90;8.60;;;3.30;99.90;;;;;;5035000;28;20188;-47
2021/01/20 03:46:11;;;;;;;9.40;8.23;;;3.30;99.90;;;;;;5035380;28;20183;-47
2021/01/20 03:48:37;;;;;;;9.53;8.40;;;3.20;99.90;;;;;;5035935;28;20196;-50
2021/01/20 03:51:03;;;;;;;9.57;8.30;;;3.30;99.90;;;;;;5035585;28;20199;-46
2021/01/20 03:53:28;;;;;;;9.67;8.07;;;3.30;99.90;;;;;;5035776;28;20168;-47
2021/01/20 03:55:54;;;;;;;9.90;8.63;;;3.30;99.90;;;;;;5034459;28;20752;-47
2021/01/20 03:58:19;;;;;;;11.37;9.30;;;3.30;99.90;;;;;;5034841;28;20694;-47
2021/01/20 04:00:45;;;;;;;10.00;8.50;;;3.30;99.90;;;;;;5035549;28;20648;-46
2021/01/20 04:03:11;;;;;;;9.70;8.40;;;3.30;99.90;;;;;;5035205;28;20550;-46
2021/01/20 04:05:36;;;;;;;10.37;8.40;;;3.30;99.90;;;;;;5035254;28;20647;-46
2021/01/20 04:08:02;;;;;;;9.13;8.13;;;3.40;99.90;;;;;;5034498;28;20286;-46
2021/01/20 04:10:27;;;;;;;10.50;8.77;;;3.40;99.90;;;;;;5034917;28;20291;-48
2021/01/20 04:12:53;;;;;;;9.67;8.00;;;3.40;99.90;;;;;;5034387;28;20168;-48
2021/01/20 04:15:19;;;;;;;9.80;8.00;;;3.40;99.90;;;;;;5034683;28;20186;-46
2021/01/20 04:17:44;;;;;;;10.63;8.70;;;3.40;99.90;;;;;;5034721;28;20263;-48
2021/01/20 04:20:11;;;;;;;9.30;7.67;;;3.50;99.90;;;;;;5034777;28;20263;-49
2021/01/20 04:22:37;;;;;;;10.10;8.37;;;3.50;99.90;;;;;;5033776;28;20588;-50
2021/01/20 04:25:04;;;;;;;9.20;8.00;;;3.50;99.90;;;;;;5031476;28;20663;-45
2021/01/20 04:27:29;;;;;;;9.03;7.57;;;3.50;99.90;;;;;;5033822;28;20414;-48
2021/01/20 04:29:55;;;;;;;9.30;7.83;;;3.50;99.90;;;;;;5031556;28;20222;-46
2021/01/20 04:32:20;;;;;;;9.80;7.77;;;3.50;99.90;;;;;;5034373;28;20206;-46
2021/01/20 04:34:47;;;;;;;9.37;7.87;;;3.50;99.90;;;;;;5034104;28;20179;-46
2021/01/20 04:37:12;;;;;;;9.20;7.83;;;3.50;99.90;;;;;;5033907;28;20221;-46
2021/01/20 04:39:38;;;;;;;7.73;6.87;;;3.50;99.90;;;;;;5031996;28;20195;-51
2021/01/20 04:42:05;;;;;;;9.53;7.97;;;3.50;99.90;;;;;;5033957;28;20184;-48
2021/01/20 04:44:31;;;;;;;9.07;7.33;;;3.50;99.90;;;;;;5033256;28;20505;-47
2021/01/20 04:46:57;;;;;;;8.53;7.10;;;3.60;99.90;;;;;;5034546;28;20286;-48
2021/01/20 04:49:26;;;;;;;8.70;7.57;;;3.50;99.90;;;;;;5031403;28;20224;-47
2021/01/20 04:51:53;;;;;;;17.27;8.60;;;3.40;99.90;;;;;;5033950;28;20470;-46
2021/01/20 04:54:19;;;;;;;12.60;8.67;;;3.30;99.90;;;;;;5034242;28;20461;-51
2021/01/20 04:56:46;;;;;;;8.87;7.47;;;3.20;99.90;;;;;;5034459;28;20406;-51
2021/01/20 04:59:11;;;;;;;9.20;7.90;;;3.20;99.90;;;;;;5031026;28;20214;-47
2021/01/20 05:01:38;;;;;;;8.20;7.03;;;3.30;99.90;;;;;;5033655;28;20702;-46
2021/01/20 05:04:04;;;;;;;9.33;7.63;;;3.30;99.90;;;;;;5033080;28;20241;-47
2021/01/20 05:06:30;;;;;;;9.73;7.53;;;3.20;99.90;;;;;;5033905;28;20184;-46
2021/01/20 05:08:56;;;;;;;8.50;6.90;;;3.20;99.90;;;;;;5032121;28;20492;-46
2021/01/20 05:11:44;;;;;;;9.50;7.17;;;3.20;99.90;;;;;;5033630;28;20219;-46
2021/01/20 05:14:17;;;;;;;8.37;7.13;;;3.20;99.90;;;;;;5034275;28;20188;-46
2021/01/20 05:16:49;;;;;;;10.27;7.63;;;3.10;99.90;;;;;;5033474;28;20923;-46
2021/01/20 05:19:14;;;;;;;8.73;7.50;;;3.10;99.90;;;;;;5023239;28;20454;-47
2021/01/20 05:21:40;;;;;;;9.20;7.23;;;3.20;99.90;;;;;;5026679;28;20480;-45
2021/01/20 05:24:24;;;;;;;8.27;6.90;;;3.20;99.90;;;;;;5033170;28;20199;-46
2021/01/20 05:26:50;;;;;;;8.23;6.77;;;3.20;99.90;;;;;;5033534;28;20214;-49
2021/01/20 05:29:17;;;;;;;9.30;7.63;;;3.20;99.90;;;;;;5031635;28;20470;-47
2021/01/20 05:31:43;;;;;;;8.33;6.70;;;3.30;99.90;;;;;;5032868;28;20238;-46
2021/01/20 05:34:28;;;;;;;8.10;6.90;;;3.30;99.90;;;;;;5034442;28;20418;-45
2021/01/20 05:37:10;;;;;;;7.40;6.20;;;3.40;99.90;;;;;;5034377;28;20183;-45
2021/01/20 05:39:38;;;;;;;7.67;6.37;;;3.30;99.90;;;;;;5037516;28;20619;-46
2021/01/20 05:42:09;;;;;;;7.97;6.83;;;3.30;99.90;;;;;;5037144;28;21079;-46
2021/01/20 05:44:35;;;;;;;8.40;7.13;;;3.40;99.90;;;;;;5037992;28;20450;-48
2021/01/20 05:47:10;;;;;;;8.47;6.83;;;3.40;99.90;;;;;;5037942;28;20414;-49
2021/01/20 05:49:37;;;;;;;10.00;7.83;;;3.40;99.90;;;;;;5035118;28;20461;-45
2021/01/20 05:52:11;;;;;;;16.50;10.87;;;3.40;99.90;;;;;;5037272;28;20419;-46
2021/01/20 05:54:38;;;;;;;13.27;9.20;;;3.30;99.90;;;;;;5036314;28;20442;-46
2021/01/20 05:57:17;;;;;;;13.23;7.83;;;3.30;99.90;;;;;;5039495;28;20180;-46
2021/01/20 05:59:44;;;;;;;9.83;7.57;;;3.30;99.90;;;;;;5033081;28;20457;-48
2021/01/20 06:02:12;;;;;;;9.63;7.27;;;3.10;99.90;;;;;;5038287;28;20960;-55
2021/01/20 06:04:38;;;;;;;10.97;7.07;;;3.00;99.90;;;;;;5037365;28;20847;-46
2021/01/20 06:07:09;;;;;;;9.13;7.53;;;2.90;99.90;;;;;;5019757;28;20184;-48
2021/01/20 06:09:42;;;;;;;8.23;6.63;;;2.90;99.90;;;;;;5035174;28;20897;-46
2021/01/20 06:12:09;;;;;;;7.60;6.43;;;2.90;99.90;;;;;;5036011;28;20422;-46
2021/01/20 06:14:36;;;;;;;8.47;6.93;;;3.00;99.90;;;;;;5036567;28;20183;-45
2021/01/20 06:17:20;;;;;;;9.20;7.37;;;3.00;99.90;;;;;;5036821;28;20445;-46
2021/01/20 06:19:48;;;;;;;9.63;7.27;;;3.00;99.90;;;;;;5033295;28;20560;-47
2021/01/20 06:22:16;;;;;;;12.70;8.90;;;3.00;99.90;;;;;;5037558;28;20172;-48
2021/01/20 06:24:50;;;;;;;12.67;8.60;;;3.00;99.90;;;;;;5036900;28;20437;-46
2021/01/20 06:27:25;;;;;;;12.10;9.30;;;3.00;99.90;;;;;;5036878;28;20414;-48
2021/01/20 06:30:02;;;;;;;13.67;9.03;;;3.00;99.90;;;;;;5030748;28;20985;-45
2021/01/20 06:32:29;;;;;;;14.43;10.13;;;3.00;99.90;;;;;;5014418;28;20643;-51
2021/01/20 06:34:55;;;;;;;14.43;9.77;;;3.00;99.90;;;;;;5019018;28;20971;-44
2021/01/20 06:37:38;;;;;;;14.73;9.43;;;3.00;99.90;;;;;;5036598;28;20853;-47
2021/01/20 06:40:24;;;;;;;10.57;8.47;;;3.00;99.90;;;;;;5029168;28;20253;-49
2021/01/20 06:42:50;;;;;;;10.20;8.23;;;2.80;99.90;;;;;;5034537;28;20473;-46
2021/01/20 06:45:22;;;;;;;9.33;7.47;;;2.70;99.90;;;;;;5036506;28;20993;-46
2021/01/20 06:47:59;;;;;;;9.30;7.20;;;2.70;99.90;;;;;;5035733;28;20442;-48
2021/01/20 06:50:32;;;;;;;8.03;6.57;;;2.50;99.90;;;;;;5036697;28;20454;-47
2021/01/20 06:53:07;;;;;;;10.37;6.80;;;2.60;99.90;;;;;;5038736;28;20464;-48
2021/01/20 06:55:37;;;;;;;9.00;7.43;;;2.50;99.90;;;;;;5036500;28;20422;-46
2021/01/20 06:58:24;;;;;;;8.80;7.13;;;2.50;99.90;;;;;;5036606;28;20541;-48
2021/01/20 07:00:58;;;;;;;9.40;8.03;;;2.40;99.90;;;;;;5037843;28;20433;-45
2021/01/20 07:03:37;;;;;;;7.43;6.37;;;2.40;99.90;;;;;;5037886;28;20454;-45
2021/01/20 07:06:03;;;;;;;9.57;7.03;;;2.40;99.90;;;;;;5038219;28;20434;-45
2021/01/20 07:08:55;;;;;;;8.03;6.50;;;2.40;99.90;;;;;;5035390;28;20466;-47
2021/01/20 07:11:20;;;;;;;7.53;6.50;;;2.30;99.90;;;;;;5037044;28;20204;-45
2021/01/20 07:13:46;;;;;;;8.87;6.63;;;2.30;99.90;;;;;;5035972;28;20452;-46
2021/01/20 07:16:12;;;;;;;8.00;6.40;;;2.30;99.90;;;;;;5036015;28;20263;-46
2021/01/20 07:18:44;;;;;;;7.80;5.97;;;2.40;99.90;;;;;;5018058;28;20667;-45
2021/01/20 07:21:10;;;;;;;6.87;6.00;;;2.60;99.90;;;;;;5035900;28;20452;-51
2021/01/20 07:23:35;;;;;;;7.13;6.00;;;2.70;99.90;;;;;;5037914;28;20510;-46
2021/01/20 07:26:03;;;;;;;7.97;5.60;;;2.70;99.90;;;;;;5037533;28;20176;-51
2021/01/20 07:28:29;;;;;;;7.43;6.50;;;2.80;99.90;;;;;;5036760;28;20204;-46
2021/01/20 07:31:13;;;;;;;7.33;6.10;;;2.80;99.90;;;;;;5037066;28;20958;-48
2021/01/20 07:33:50;;;;;;;7.03;5.77;;;2.80;99.90;;;;;;5036246;28;20426;-45
2021/01/20 07:36:17;;;;;;;6.93;5.60;;;2.80;99.90;;;;;;5034857;28;20426;-46
2021/01/20 07:38:47;;;;;;;9.20;6.17;;;2.80;99.90;;;;;;5034257;28;20862;-44
2021/01/20 07:41:22;;;;;;;7.20;5.73;;;2.80;99.90;;;;;;5035239;28;20503;-45
2021/01/20 07:44:07;;;;;;;6.60;5.60;;;2.80;99.90;;;;;;5034980;28;20643;-46
2021/01/20 07:46:32;;;;;;;6.37;5.10;;;2.90;99.90;;;;;;5036226;28;20533;-45
2021/01/20 07:49:12;;;;;;;11.10;5.80;;;3.00;99.90;;;;;;5035650;28;20889;-49
2021/01/20 07:51:38;;;;;;;6.97;5.90;;;3.20;99.90;;;;;;5035129;28;20208;-46
2021/01/20 07:54:05;;;;;;;6.50;5.40;;;3.30;99.90;;;;;;5031922;28;20268;-47
2021/01/20 07:56:32;;;;;;;8.57;6.20;;;3.40;99.90;;;;;;5033537;28;20203;-49
2021/01/20 07:59:15;;;;;;;8.00;6.40;;;3.50;99.90;;;;;;5033098;28;20201;-47
2021/01/20 08:01:41;;;;;;;8.90;6.50;;;3.60;99.90;;;;;;5030671;28;20193;-45
2021/01/20 08:04:23;;;;;;;10.80;7.57;;;3.70;99.90;;;;;;5034019;28;20196;-45
2021/01/20 08:06:52;;;;;;;11.50;8.13;;;3.80;99.90;;;;;;5034100;28;20207;-47
2021/01/20 08:09:17;;;;;;;11.77;8.53;;;3.80;99.90;;;;;;5031922;28;20192;-46
2021/01/20 08:11:46;;;;;;;9.77;7.53;;;3.90;99.90;;;;;;5032847;28;20218;-48
2021/01/20 08:14:13;;;;;;;10.47;7.90;;;3.80;99.90;;;;;;5034592;28;20199;-47
2021/01/20 08:16:38;;;;;;;12.53;8.50;;;3.80;99.90;;;;;;5042329;28;20176;-46
2021/01/20 08:19:05;;;;;;;11.40;8.53;;;3.90;99.90;;;;;;5035682;28;20229;-45
2021/01/20 08:21:32;;;;;;;10.87;6.60;;;4.00;99.90;;;;;;5035363;28;20667;-47
2021/01/20 08:24:00;;;;;;;21.33;13.90;;;3.90;99.90;;;;;;5036265;28;20204;-51
2021/01/20 08:26:30;;;;;;;10.20;7.90;;;4.00;99.90;;;;;;5034684;28;20285;-46
2021/01/20 08:29:06;;;;;;;20.50;16.77;;;4.00;99.90;;;;;;5034309;28;20246;-48
2021/01/20 08:31:32;;;;;;;14.77;11.50;;;4.10;99.90;;;;;;5033517;28;20592;-46
2021/01/20 08:34:18;;;;;;;16.40;11.33;;;4.10;99.90;;;;;;5017470;28;20173;-47
2021/01/20 08:37:04;;;;;;;11.77;9.80;;;4.20;99.90;;;;;;5036513;28;20207;-47
2021/01/20 08:39:31;;;;;;;10.27;7.87;;;4.40;99.90;;;;;;5031623;28;20196;-51
2021/01/20 08:42:25;;;;;;;11.80;8.37;;;4.40;99.90;;;;;;5033318;28;20176;-46
2021/01/20 08:45:10;;;;;;;10.27;7.50;;;4.40;99.90;;;;;;5032863;28;20171;-47
2021/01/20 08:47:44;;;;;;;9.87;7.20;;;4.40;99.90;;;;;;5031790;28;20188;-48
2021/01/20 08:50:12;;;;;;;9.97;7.87;;;4.50;99.90;;;;;;5031188;28;20219;-45
2021/01/20 08:52:42;;;;;;;8.90;6.80;;;4.90;99.90;;;;;;5036898;28;20172;-46
2021/01/20 08:55:10;;;;;;;10.90;7.57;;;4.90;99.90;;;;;;5030579;28;20187;-50
2021/01/20 08:57:35;;;;;;;11.23;8.40;;;5.10;99.90;;;;;;5033370;28;20254;-46
2021/01/20 09:00:01;;;;;;;9.80;7.47;;;5.40;99.90;;;;;;5034611;28;20313;-48
2021/01/20 09:02:26;;;;;;;9.00;7.33;;;5.80;99.90;;;;;;5033424;28;20187;-46
2021/01/20 09:04:52;;;;;;;8.80;6.97;;;6.40;99.90;;;;;;5033328;28;20183;-48
2021/01/20 09:07:18;;;;;;;6.63;5.80;;;7.00;99.90;;;;;;5033231;28;20171;-49
2021/01/20 09:09:44;;;;;;;6.47;5.20;;;7.60;99.90;;;;;;5037935;28;20733;-46
2021/01/20 09:12:11;;;;;;;8.10;5.83;;;8.20;99.90;;;;;;5032631;28;20651;-45
2021/01/20 09:14:40;;;;;;;6.40;5.70;;;8.70;99.90;;;;;;5033477;28;20207;-49
2021/01/20 09:17:06;;;;;;;6.43;5.63;;;9.20;99.90;;;;;;5016097;28;20179;-48
2021/01/20 09:19:33;;;;;;;5.90;5.13;;;9.60;99.90;;;;;;5033643;28;20275;-48
2021/01/20 09:21:59;;;;;;;6.30;5.70;;;9.90;99.90;;;;;;5015811;28;20187;-49
2021/01/20 09:24:25;;;;;;;6.20;5.60;;;10.30;99.90;;;;;;5033498;28;20223;-45
2021/01/20 09:26:50;;;;;;;5.90;5.30;;;10.80;99.90;;;;;;5033122;28;20218;-46
2021/01/20 09:29:16;;;;;;;6.60;5.87;;;11.50;99.90;;;;;;5027639;28;20300;-45
2021/01/20 09:31:41;;;;;;;8.00;7.00;;;12.30;99.90;;;;;;5031514;28;20294;-47
2021/01/20 09:34:10;;;;;;;8.43;6.83;;;13.10;99.90;;;;;;5031154;28;20878;-48
2021/01/20 09:36:35;;;;;;;7.93;6.93;;;13.70;99.90;;;;;;5029385;28;20280;-47
2021/01/20 09:39:03;;;;;;;7.77;6.97;;;14.10;99.00;;;;;;5033155;28;20287;-47
2021/01/20 09:41:29;;;;;;;10.13;7.93;;;14.50;97.90;;;;;;5033193;28;20307;-48
2021/01/20 09:43:55;;;;;;;8.43;7.37;;;14.70;96.60;;;;;;5033134;28;20667;-52
2021/01/20 09:46:21;;;;;;;7.33;6.50;;;14.90;96.00;;;;;;5029453;28;20205;-47
2021/01/20 09:48:46;;;;;;;7.43;6.70;;;15.00;95.80;;;;;;5028550;28;20375;-50
2021/01/20 09:51:12;;;;;;;8.13;7.27;;;15.00;95.30;;;;;;5031213;28;20207;-46
2021/01/20 09:53:38;;;;;;;7.60;6.43;;;14.90;94.80;;;;;;5041714;28;20186;-45
2021/01/20 09:56:04;;;;;;;7.13;6.37;;;15.20;95.00;;;;;;5031081;28;20231;-49
2021/01/20 09:58:29;;;;;;;8.87;7.60;;;14.30;94.90;;;;;;5030025;28;20225;-48
2021/01/20 10:00:55;;;;;;;8.43;7.53;;;14.10;95.40;;;;;;5031207;28;20692;-45
2021/01/20 10:03:21;;;;;;;8.30;7.40;;;14.00;95.40;;;;;;5031840;28;20672;-47
2021/01/20 10:05:48;;;;;;;7.60;6.80;;;14.80;95.50;;;;;;5031479;28;20288;-46
2021/01/20 10:08:15;;;;;;;7.50;6.67;;;13.80;95.80;;;;;;5030232;28;20211;-49
2021/01/20 10:10:41;;;;;;;6.77;6.00;;;13.60;95.70;;;;;;5006407;28;20207;-52
2021/01/20 10:13:06;;;;;;;7.23;6.40;;;13.60;96.00;;;;;;5012022;28;20207;-48
2021/01/20 10:15:32;;;;;;;7.67;6.27;;;13.60;96.00;;;;;;5006830;28;20644;-49
2021/01/20 10:17:59;;;;;;;8.43;7.53;;;13.70;96.00;;;;;;5023945;28;20191;-48
2021/01/20 10:20:24;;;;;;;11.93;10.17;;;13.80;95.30;;;;;;4991024;28;20205;-47
2021/01/20 10:22:50;;;;;;;8.97;7.77;;;13.90;95.40;;;;;;5031794;28;20187;-43
2021/01/20 10:25:15;;;;;;;7.10;6.20;;;14.10;95.30;;;;;;5034692;28;20181;-46
2021/01/20 10:27:41;;;;;;;6.80;5.97;;;14.30;95.00;;;;;;5034841;28;20183;-46
2021/01/20 10:30:07;;;;;;;7.30;6.20;;;14.30;94.70;;;;;;5033428;28;20232;-49
2021/01/20 10:32:33;;;;;;;7.23;6.30;;;14.30;94.60;;;;;;5035851;28;20637;-49
2021/01/20 10:34:59;;;;;;;7.73;6.80;;;14.00;94.40;;;;;;5035535;28;20205;-48
2021/01/20 10:37:24;;;;;;;8.23;6.60;;;13.60;94.70;;;;;;5034871;28;20239;-49
2021/01/20 10:39:50;;;;;;;7.87;7.07;;;13.30;95.30;;;;;;5032595;28;20200;-47
2021/01/20 10:42:15;;;;;;;12.67;11.37;;;12.90;95.70;;;;;;5014931;28;20203;-47
2021/01/20 10:44:41;;;;;;;6.70;6.00;;;12.60;96.10;;;;;;5035003;28;20192;-45
2021/01/20 10:47:06;;;;;;;8.10;6.90;;;12.30;96.70;;;;;;5036137;28;20192;-45
2021/01/20 10:49:33;;;;;;;7.37;6.43;;;12.10;97.10;;;;;;5031200;28;20204;-49
2021/01/20 10:52:01;;;;;;;10.50;8.17;;;11.90;97.50;;;;;;5034085;28;20235;-45
2021/01/20 10:54:26;;;;;;;10.93;7.70;;;11.80;98.10;;;;;;5034230;28;20191;-46
2021/01/20 10:56:52;;;;;;;7.90;6.83;;;11.80;98.40;;;;;;5033557;28;20184;-48
2021/01/20 10:59:17;;;;;;;9.47;7.20;;;11.80;98.50;;;;;;5025368;28;20764;-46
2021/01/20 11:01:44;;;;;;;6.90;6.00;;;11.80;98.70;;;;;;5035109;28;20211;-54
2021/01/20 11:04:09;;;;;;;6.57;5.73;;;12.00;98.70;;;;;;5035430;28;20275;-47
2021/01/20 11:06:35;;;;;;;7.13;5.97;;;12.20;98.50;;;;;;5033746;28;20263;-44
2021/01/20 11:09:01;;;;;;;7.70;6.37;;;12.40;98.50;;;;;;5034950;28;20245;-49
2021/01/20 11:11:27;;;;;;;6.30;5.70;;;12.60;97.90;;;;;;5034900;28;20243;-50
2021/01/20 11:13:53;;;;;;;5.87;5.27;;;12.90;97.90;;;;;;5016121;28;20215;-49
2021/01/20 11:16:19;;;;;;;7.17;5.80;;;13.00;97.60;;;;;;5014295;28;20280;-48
2021/01/20 11:18:44;;;;;;;6.50;5.60;;;13.20;97.30;;;;;;5033634;28;20290;-45
2021/01/20 11:21:14;;;;;;;5.87;5.27;;;13.30;97.00;;;;;;5033774;28;20657;-47
2021/01/20 11:23:41;;;;;;;6.43;5.60;;;13.40;97.00;;;;;;5036336;28;20187;-52
2021/01/20 11:26:08;;;;;;;5.57;4.97;;;13.50;96.80;;;;;;5032934;28;20231;-49
2021/01/20 11:28:34;;;;;;;5.77;5.13;;;13.60;96.80;;;;;;5041122;28;20199;-48
2021/01/20 11:30:59;;;;;;;6.60;5.87;;;13.80;96.40;;;;;;5040289;28;20245;-44
2021/01/20 11:33:25;;;;;;;5.67;5.03;;;14.50;96.40;;;;;;5029989;28;20178;-45
2021/01/20 11:35:51;;;;;;;6.67;5.53;;;14.00;96.20;;;;;;5037367;28;20183;-44
2021/01/20 11:38:17;;;;;;;6.53;5.77;;;14.10;96.00;;;;;;5011803;28;20208;-47
2021/01/20 11:40:43;;;;;;;6.77;5.33;;;14.20;95.90;;;;;;5030037;28;20664;-43
2021/01/20 11:43:08;;;;;;;6.23;5.10;;;14.10;95.60;;;;;;4987739;28;20299;-45
2021/01/20 11:45:36;;;;;;;5.80;5.20;;;13.90;95.70;;;;;;5034125;28;20511;-49
2021/01/20 11:48:06;;;;;;;9.97;7.90;;;13.80;95.90;;;;;;5032975;28;20187;-43
2021/01/20 11:50:32;;;;;;;7.43;6.60;;;13.70;96.00;;;;;;5034233;28;20202;-41
2021/01/20 11:52:57;;;;;;;15.40;13.40;;;13.60;96.00;;;;;;5033655;28;20540;-45
2021/01/20 11:55:24;;;;;;;12.97;11.07;;;13.50;96.20;;;;;;5033454;28;20175;-47
2021/01/20 11:57:50;;;;;;;13.30;12.00;;;13.40;96.30;;;;;;5034995;28;20203;-44
2021/01/20 12:00:17;;;;;;;6.60;5.70;;;13.20;96.40;;;;;;5035041;28;20176;-44
2021/01/20 12:02:43;;;;;;;5.87;5.27;;;13.10;96.60;;;;;;5033039;28;20548;-45
2021/01/20 12:05:11;;;;;;;6.90;5.60;;;12.90;96.70;;;;;;5033890;28;20186;-44
2021/01/20 12:07:38;;;;;;;5.53;4.90;;;12.80;96.90;;;;;;5031005;28;20730;-45
2021/01/20 12:10:05;;;;;;;6.10;5.40;;;12.80;97.10;;;;;;5034246;28;20215;-44
2021/01/20 12:12:30;;;;;;;7.20;5.87;;;12.80;97.30;;;;;;5026733;28;20180;-44
2021/01/20 12:14:56;;;;;;;6.60;5.93;;;12.90;97.40;;;;;;5032515;28;20202;-46
2021/01/20 12:17:21;;;;;;;8.37;6.57;;;13.10;97.50;;;;;;5032681;28;20187;-50
2021/01/20 12:19:47;;;;;;;7.93;7.00;;;13.20;97.40;;;;;;5033499;28;20230;-44
2021/01/20 12:22:13;;;;;;;7.30;6.53;;;13.40;97.40;;;;;;5034034;28;20708;-44
2021/01/20 12:24:38;;;;;;;7.83;6.57;;;13.60;97.30;;;;;;5031779;28;20195;-45
2021/01/20 12:27:04;;;;;;;7.87;6.67;;;13.70;97.00;;;;;;5032434;28;20180;-46
2021/01/20 12:29:29;;;;;;;6.87;6.13;;;13.90;96.80;;;;;;5039840;28;20247;-44
2021/01/20 12:31:55;;;;;;;6.90;6.17;;;14.10;96.50;;;;;;5046119;28;20242;-44
2021/01/20 12:34:21;;;;;;;6.20;5.47;;;14.30;96.50;;;;;;5027919;28;20217;-48
2021/01/20 12:36:47;;;;;;;6.63;5.50;;;14.60;96.40;;;;;;5032990;28;20188;-46
2021/01/20 12:39:12;;;;;;;6.43;5.40;;;14.80;95.90;;;;;;5032625;28;20207;-48
2021/01/20 12:41:38;;;;;;;6.77;5.33;;;15.10;95.60;;;;;;5027881;28;20187;-48
2021/01/20 12:44:05;;;;;;;6.70;5.60;;;15.30;95.30;;;;;;5032287;28;20184;-52
2021/01/20 12:46:30;;;;;;;6.13;5.53;;;15.50;95.10;;;;;;5012328;28;20627;-43
2021/01/20 12:48:56;;;;;;;7.33;5.03;;;15.70;94.70;;;;;;5032803;28;20700;-46
2021/01/20 12:51:22;;;;;;;4.90;4.50;;;15.80;94.30;;;;;;5015245;28;20290;-45
2021/01/20 12:53:47;;;;;;;5.63;5.00;;;15.90;94.10;;;;;;4996241;28;20183;-43
2021/01/20 12:56:13;;;;;;;6.70;5.40;;;16.00;93.90;;;;;;5022185;28;20196;-45